createdAt,value
2023-11-30T00:00:30.637Z,0.10
2023-11-30T00:02:57.731Z,0.00
2023-11-30T00:05:24.573Z,0.00
2023-11-30T00:07:52.471Z,0.00
2023-11-30T00:10:19.346Z,0.10
2023-11-30T00:12:46.151Z,-0.30
2023-11-30T00:15:13.055Z,-0.30
2023-11-30T00:17:39.874Z,-0.30
2023-11-30T00:20:07.890Z,-0.20
2023-11-30T00:22:34.752Z,-0.20
2023-11-30T00:25:01.588Z,-0.20
2023-11-30T00:27:28.428Z,-0.20
2023-11-30T00:29:55.287Z,-0.20
2023-11-30T00:32:22.158Z,-0.30
2023-11-30T00:34:48.963Z,-0.40
2023-11-30T00:37:15.732Z,-0.40
2023-11-30T00:39:42.522Z,-0.30
2023-11-30T00:42:09.460Z,-0.30
2023-11-30T00:44:36.417Z,-0.20
2023-11-30T00:47:03.333Z,-0.30
2023-11-30T00:49:30.143Z,-0.30
2023-11-30T00:51:57.093Z,-0.30
2023-11-30T00:54:23.946Z,-0.30
2023-11-30T00:56:50.894Z,-0.30
2023-11-30T00:59:17.794Z,-0.20
2023-11-30T01:01:44.876Z,-0.20
2023-11-30T01:04:11.934Z,-0.20
2023-11-30T01:06:38.783Z,-0.30
2023-11-30T01:09:05.966Z,-0.30
2023-11-30T01:11:33.041Z,-0.40
2023-11-30T01:14:00.110Z,-0.40
2023-11-30T01:16:26.988Z,-0.30
2023-11-30T01:18:53.846Z,-0.30
2023-11-30T01:21:21.271Z,-0.50
2023-11-30T01:23:48.187Z,-0.40
2023-11-30T01:26:15.143Z,-0.40
2023-11-30T01:28:42.047Z,-0.40
2023-11-30T01:31:08.868Z,-0.40
2023-11-30T01:33:37.575Z,-0.30
2023-11-30T01:36:06.548Z,-0.30
2023-11-30T01:38:33.412Z,-0.30
2023-11-30T01:41:00.307Z,-0.20
2023-11-30T01:43:28.241Z,-0.30
2023-11-30T01:46:02.751Z,-0.30
2023-11-30T01:48:32.007Z,-0.20
2023-11-30T01:50:59.474Z,-0.20
2023-11-30T01:53:26.605Z,-0.20
2023-11-30T01:55:53.467Z,-0.20
2023-11-30T01:58:20.924Z,-0.20
2023-11-30T02:00:48.900Z,-0.10
2023-11-30T02:03:17.857Z,-0.20
2023-11-30T02:05:45.849Z,-0.20
2023-11-30T02:08:12.682Z,-0.30
2023-11-30T02:10:39.541Z,-0.20
2023-11-30T02:13:06.340Z,-0.30
2023-11-30T02:15:33.177Z,-0.20
2023-11-30T02:18:00.126Z,-0.20
2023-11-30T02:20:27.075Z,-0.30
2023-11-30T02:22:53.983Z,-0.20
2023-11-30T02:25:20.783Z,-0.20
2023-11-30T02:27:47.614Z,-0.10
2023-11-30T02:30:14.806Z,-0.20
2023-11-30T02:32:41.756Z,-0.10
2023-11-30T02:35:09.716Z,-0.10
2023-11-30T02:37:36.550Z,-0.10
2023-11-30T02:40:03.824Z,-0.20
2023-11-30T02:42:30.727Z,-0.30
2023-11-30T02:44:57.764Z,-0.20
2023-11-30T02:47:24.634Z,-0.20
2023-11-30T02:49:51.537Z,-0.10
2023-11-30T02:52:18.372Z,-0.10
2023-11-30T02:54:45.177Z,0.00
2023-11-30T02:57:12.141Z,0.00
2023-11-30T02:59:39.012Z,0.00
2023-11-30T03:02:06.721Z,0.10
2023-11-30T03:04:33.583Z,-0.10
2023-11-30T03:07:00.380Z,-0.10
2023-11-30T03:09:27.237Z,-0.20
2023-11-30T03:11:54.127Z,-0.30
2023-11-30T03:14:20.981Z,-0.30
2023-11-30T03:16:47.831Z,-0.20
2023-11-30T03:19:17.329Z,-0.30
2023-11-30T03:21:44.949Z,-0.20
2023-11-30T03:24:12.630Z,-0.30
2023-11-30T03:26:39.592Z,-0.20
2023-11-30T03:29:06.436Z,-0.20
2023-11-30T03:31:34.281Z,-0.20
2023-11-30T03:34:02.289Z,-0.20
2023-11-30T03:36:29.170Z,-0.20
2023-11-30T03:38:57.262Z,-0.30
2023-11-30T03:41:24.705Z,-0.30
2023-11-30T03:43:52.722Z,-0.30
2023-11-30T03:46:22.579Z,-0.40
2023-11-30T03:48:49.743Z,-0.40
2023-11-30T03:51:16.712Z,-0.50
2023-11-30T03:53:43.626Z,-0.60
2023-11-30T03:56:10.814Z,-0.50
2023-11-30T03:58:37.950Z,-0.50
2023-11-30T04:01:06.852Z,-0.50
2023-11-30T04:03:33.719Z,-0.50
2023-11-30T04:06:00.670Z,-0.50
2023-11-30T04:08:27.830Z,-0.40
2023-11-30T04:10:54.689Z,-0.40
2023-11-30T04:13:21.772Z,-0.40
2023-11-30T04:15:48.823Z,-0.50
2023-11-30T04:18:15.910Z,-0.40
2023-11-30T04:20:42.855Z,-0.40
2023-11-30T04:23:09.912Z,-0.30
2023-11-30T04:25:36.792Z,-0.30
2023-11-30T04:28:03.841Z,-0.40
2023-11-30T04:30:30.742Z,-0.40
2023-11-30T04:32:57.755Z,-0.40
2023-11-30T04:35:24.666Z,-0.30
2023-11-30T04:37:52.249Z,-0.30
2023-11-30T04:40:19.682Z,-0.20
2023-11-30T04:42:46.535Z,-0.30
2023-11-30T04:45:13.446Z,-0.40
2023-11-30T04:47:40.446Z,-0.40
2023-11-30T04:50:08.252Z,-0.40
2023-11-30T04:52:35.072Z,-0.40
2023-11-30T04:55:01.878Z,-0.30
2023-11-30T04:57:28.748Z,-0.50
2023-11-30T04:59:55.653Z,-0.50
2023-11-30T05:02:22.595Z,-0.40
2023-11-30T05:04:50.056Z,-0.30
2023-11-30T05:07:17.499Z,-0.30
2023-11-30T05:09:44.347Z,-0.30
2023-11-30T05:12:11.282Z,-0.20
2023-11-30T05:14:38.257Z,-0.20
2023-11-30T05:17:05.370Z,-0.20
2023-11-30T05:19:32.501Z,-0.20
2023-11-30T05:21:59.320Z,-0.30
2023-11-30T05:24:26.304Z,-0.30
2023-11-30T05:26:53.141Z,-0.20
2023-11-30T05:29:19.922Z,-0.20
2023-11-30T05:31:47.946Z,-0.20
2023-11-30T05:34:15.164Z,-0.20
2023-11-30T05:36:42.410Z,-0.20
2023-11-30T05:39:09.914Z,-0.20
2023-11-30T05:41:37.273Z,-0.20
2023-11-30T05:44:04.837Z,-0.10
2023-11-30T05:46:31.767Z,-0.10
2023-11-30T05:48:58.651Z,-0.10
2023-11-30T05:51:27.586Z,-0.10
2023-11-30T05:53:54.663Z,-0.20
2023-11-30T05:56:21.576Z,-0.10
2023-11-30T05:58:48.433Z,-0.20
2023-11-30T06:01:15.313Z,-0.10
2023-11-30T06:03:42.541Z,-0.20
2023-11-30T06:06:12.673Z,-0.20
2023-11-30T06:08:39.819Z,-0.20
2023-11-30T06:11:06.860Z,-0.20
2023-11-30T06:13:33.679Z,-0.20
2023-11-30T06:16:00.544Z,-0.30
2023-11-30T06:18:27.513Z,-0.30
2023-11-30T06:20:54.329Z,-0.30
2023-11-30T06:23:21.142Z,-0.40
2023-11-30T06:25:48.919Z,-0.40
2023-11-30T06:28:17.317Z,-0.40
2023-11-30T06:30:45.792Z,-0.40
2023-11-30T06:33:12.726Z,-0.50
2023-11-30T06:35:39.620Z,-0.50
2023-11-30T06:38:06.839Z,-0.50
2023-11-30T06:40:33.618Z,-0.50
2023-11-30T06:43:00.457Z,-0.50
2023-11-30T06:45:27.677Z,-0.60
2023-11-30T06:47:54.637Z,-0.50
2023-11-30T06:50:21.546Z,-0.60
2023-11-30T06:52:48.524Z,-0.50
2023-11-30T06:55:15.385Z,-0.50
2023-11-30T06:57:42.247Z,-0.50
2023-11-30T07:00:13.770Z,-0.50
2023-11-30T07:02:40.681Z,-0.40
2023-11-30T07:05:08.323Z,-0.50
2023-11-30T07:07:37.057Z,-0.50
2023-11-30T07:10:05.288Z,-0.40
2023-11-30T07:12:32.587Z,-0.40
2023-11-30T07:14:59.652Z,-0.40
2023-11-30T07:17:26.504Z,-0.40
2023-11-30T07:19:54.284Z,-0.30
2023-11-30T07:22:23.202Z,-0.30
2023-11-30T07:24:50.059Z,-0.30
2023-11-30T07:27:20.202Z,-0.30
2023-11-30T07:29:48.006Z,-0.30
2023-11-30T07:32:16.761Z,-0.40
2023-11-30T07:34:45.442Z,-0.40
2023-11-30T07:37:15.963Z,-0.30
2023-11-30T07:39:42.838Z,-0.30
2023-11-30T07:42:09.733Z,-0.30
2023-11-30T07:44:36.716Z,-0.30
2023-11-30T07:47:03.742Z,-0.30
2023-11-30T07:49:30.623Z,-0.30
2023-11-30T07:51:57.636Z,-0.30
2023-11-30T07:54:25.621Z,-0.30
2023-11-30T07:56:52.518Z,-0.30
2023-11-30T07:59:19.389Z,-0.30
2023-11-30T08:01:46.340Z,-0.20
2023-11-30T08:04:14.153Z,-0.20
2023-11-30T08:06:43.451Z,-0.20
2023-11-30T08:09:10.599Z,-0.20
2023-11-30T08:11:39.573Z,-0.20
2023-11-30T08:14:06.599Z,-0.20
2023-11-30T08:16:35.021Z,-0.20
2023-11-30T08:19:02.457Z,-0.20
2023-11-30T08:21:29.688Z,-0.20
2023-11-30T08:23:56.714Z,-0.10
2023-11-30T08:26:23.771Z,0.00
2023-11-30T08:28:51.411Z,0.00
2023-11-30T08:31:18.396Z,0.10
2023-11-30T08:33:46.187Z,0.10
2023-11-30T08:36:13.186Z,0.10
2023-11-30T08:38:39.998Z,0.20
2023-11-30T08:41:07.530Z,0.30
2023-11-30T08:43:34.346Z,0.40
2023-11-30T08:46:01.317Z,0.50
2023-11-30T08:48:28.484Z,0.50
2023-11-30T08:50:55.395Z,0.60
2023-11-30T08:53:22.435Z,0.70
2023-11-30T08:55:49.432Z,0.70
2023-11-30T08:58:17.205Z,0.80
2023-11-30T09:00:44.224Z,0.80
2023-11-30T09:03:11.324Z,0.80
2023-11-30T09:05:38.334Z,0.80
2023-11-30T09:08:05.245Z,0.80
2023-11-30T09:10:32.173Z,0.90
2023-11-30T09:12:59.050Z,0.90
2023-11-30T09:15:25.998Z,0.90
2023-11-30T09:17:53.293Z,1.00
2023-11-30T09:20:21.345Z,1.10
2023-11-30T09:22:48.511Z,1.20
2023-11-30T09:25:15.643Z,1.40
2023-11-30T09:27:44.082Z,1.40
2023-11-30T09:30:12.145Z,1.50
2023-11-30T09:32:39.832Z,1.60
2023-11-30T09:35:07.330Z,1.70
2023-11-30T09:37:34.923Z,1.80
2023-11-30T09:40:01.965Z,1.90
2023-11-30T09:42:30.594Z,2.00
2023-11-30T09:45:05.346Z,2.10
2023-11-30T09:47:32.977Z,2.20
2023-11-30T09:50:01.832Z,2.20
2023-11-30T09:52:30.164Z,2.20
2023-11-30T09:54:58.234Z,2.20
2023-11-30T09:57:25.289Z,2.20
2023-11-30T09:59:52.485Z,2.10
2023-11-30T10:02:20.526Z,2.40
2023-11-30T10:04:47.524Z,2.80
2023-11-30T10:07:14.837Z,3.10
2023-11-30T10:09:42.623Z,3.40
2023-11-30T10:12:11.729Z,3.50
2023-11-30T10:14:38.966Z,3.60
2023-11-30T10:17:06.018Z,3.60
2023-11-30T10:19:33.682Z,3.70
2023-11-30T10:22:00.670Z,3.90
2023-11-30T10:24:29.065Z,4.20
2023-11-30T10:27:00.684Z,4.40
2023-11-30T10:29:31.908Z,4.60
2023-11-30T10:32:04.017Z,4.90
2023-11-30T10:34:41.699Z,5.00
2023-11-30T10:37:10.464Z,4.80
2023-11-30T10:39:43.062Z,4.80
2023-11-30T10:42:13.997Z,4.70
2023-11-30T10:44:45.393Z,4.60
2023-11-30T10:47:14.157Z,4.50
2023-11-30T10:49:43.705Z,4.50
2023-11-30T10:52:11.652Z,4.30
2023-11-30T10:54:57.766Z,4.10
2023-11-30T10:57:24.955Z,4.00
2023-11-30T10:59:59.573Z,3.90
2023-11-30T11:02:39.934Z,3.80
2023-11-30T11:05:15.674Z,3.60
2023-11-30T11:07:51.432Z,3.60
2023-11-30T11:10:30.473Z,3.50
2023-11-30T11:13:01.697Z,3.30
2023-11-30T11:15:29.992Z,3.00
2023-11-30T11:18:05.189Z,2.90
2023-11-30T11:20:35.721Z,2.90
2023-11-30T11:23:05.626Z,2.90
2023-11-30T11:25:51.134Z,2.80
2023-11-30T11:28:19.976Z,2.80
2023-11-30T11:30:51.545Z,2.90
2023-11-30T11:33:20.530Z,2.80
2023-11-30T11:35:47.595Z,2.60
2023-11-30T11:38:14.660Z,2.70
2023-11-30T11:40:42.263Z,2.70
2023-11-30T11:43:09.590Z,2.70
2023-11-30T11:45:40.495Z,2.70
2023-11-30T11:48:11.942Z,2.80
2023-11-30T11:50:39.538Z,3.00
2023-11-30T11:53:07.166Z,3.10
2023-11-30T11:55:34.224Z,3.20
2023-11-30T11:58:01.066Z,3.20
2023-11-30T12:00:28.148Z,3.20
2023-11-30T12:03:09.268Z,3.30
2023-11-30T12:05:50.094Z,3.40
2023-11-30T12:08:16.935Z,3.40
2023-11-30T12:10:45.352Z,3.30
2023-11-30T12:13:13.849Z,3.30
2023-11-30T12:15:41.288Z,3.20
2023-11-30T12:18:09.116Z,3.20
2023-11-30T12:20:36.402Z,3.30
2023-11-30T12:23:03.535Z,3.30
2023-11-30T12:25:30.440Z,3.40
2023-11-30T12:27:57.357Z,3.30
2023-11-30T12:30:24.765Z,3.40
2023-11-30T12:32:52.218Z,3.50
2023-11-30T12:35:19.378Z,3.40
2023-11-30T12:37:46.297Z,3.40
2023-11-30T12:40:15.035Z,3.30
2023-11-30T12:42:45.969Z,3.20
2023-11-30T12:45:14.129Z,3.20
2023-11-30T12:47:41.724Z,3.30
2023-11-30T12:50:10.454Z,3.20
2023-11-30T12:52:37.464Z,3.00
2023-11-30T12:55:06.104Z,3.00
2023-11-30T12:57:38.653Z,3.00
2023-11-30T13:00:11.067Z,3.00
2023-11-30T13:02:38.335Z,3.00
2023-11-30T13:05:05.501Z,3.00
2023-11-30T13:07:32.332Z,2.80
2023-11-30T13:09:59.599Z,2.70
2023-11-30T13:12:27.744Z,2.80
2023-11-30T13:14:57.172Z,2.70
2023-11-30T13:17:24.429Z,2.70
2023-11-30T13:19:51.388Z,2.70
2023-11-30T13:22:18.238Z,2.70
2023-11-30T13:24:45.144Z,2.50
2023-11-30T13:27:12.323Z,2.40
2023-11-30T13:29:39.367Z,2.40
2023-11-30T13:32:07.299Z,2.40
2023-11-30T13:34:36.065Z,2.30
2023-11-30T13:37:03.018Z,2.30
2023-11-30T13:39:29.891Z,2.30
2023-11-30T13:41:58.283Z,2.10
2023-11-30T13:44:25.920Z,2.10
2023-11-30T13:46:52.997Z,2.10
2023-11-30T13:49:21.244Z,2.10
2023-11-30T13:51:49.506Z,2.10
2023-11-30T13:54:17.927Z,2.10
2023-11-30T13:56:45.242Z,2.10
2023-11-30T13:59:12.652Z,2.10
2023-11-30T14:01:39.929Z,2.20
2023-11-30T14:04:09.297Z,2.10
2023-11-30T14:06:40.802Z,2.10
2023-11-30T14:09:14.884Z,2.00
2023-11-30T14:11:42.528Z,2.00
2023-11-30T14:14:09.809Z,2.00
2023-11-30T14:16:36.714Z,2.00
2023-11-30T14:19:04.496Z,2.00
2023-11-30T14:21:31.988Z,2.00
2023-11-30T14:23:58.875Z,2.00
2023-11-30T14:26:26.765Z,2.00
2023-11-30T14:28:53.744Z,1.90
2023-11-30T14:31:20.653Z,1.90
2023-11-30T14:33:47.584Z,1.80
2023-11-30T14:36:14.662Z,1.80
2023-11-30T14:38:45.368Z,1.80
2023-11-30T14:41:12.222Z,1.90
2023-11-30T14:43:39.922Z,1.80
2023-11-30T14:46:07.246Z,1.70
2023-11-30T14:48:34.222Z,1.60
2023-11-30T14:51:01.051Z,1.70
2023-11-30T14:53:27.901Z,1.70
2023-11-30T14:55:54.706Z,1.60
2023-11-30T14:58:21.614Z,1.50
2023-11-30T15:00:49.377Z,1.60
2023-11-30T15:03:16.836Z,1.60
2023-11-30T15:05:43.883Z,1.60
2023-11-30T15:08:11.390Z,1.60
2023-11-30T15:10:38.297Z,1.60
2023-11-30T15:13:05.215Z,1.50
2023-11-30T15:15:32.108Z,1.50
2023-11-30T15:17:59.381Z,1.50
2023-11-30T15:20:26.206Z,1.50
2023-11-30T15:22:53.014Z,1.50
2023-11-30T15:25:20.370Z,1.50
2023-11-30T15:27:49.583Z,1.50
2023-11-30T15:30:17.093Z,1.50
2023-11-30T15:32:44.114Z,1.40
2023-11-30T15:35:10.975Z,1.40
2023-11-30T15:37:37.993Z,1.40
2023-11-30T15:40:11.603Z,1.40
2023-11-30T15:42:39.505Z,1.50
2023-11-30T15:45:11.588Z,1.50
2023-11-30T15:47:40.148Z,1.50
2023-11-30T15:50:07.791Z,1.60
2023-11-30T15:52:34.703Z,1.60
2023-11-30T15:55:01.562Z,1.60
2023-11-30T15:57:28.752Z,1.60
2023-11-30T15:59:55.759Z,1.60
2023-11-30T16:02:22.696Z,1.60
2023-11-30T16:04:49.615Z,1.60
2023-11-30T16:07:16.474Z,1.50
2023-11-30T16:09:45.388Z,1.50
2023-11-30T16:12:12.314Z,1.40
2023-11-30T16:14:40.949Z,1.40
2023-11-30T16:17:09.091Z,1.30
2023-11-30T16:19:36.571Z,1.30
2023-11-30T16:22:04.876Z,1.30
2023-11-30T16:24:32.306Z,1.40
2023-11-30T16:26:59.387Z,1.40
2023-11-30T16:29:26.196Z,1.40
2023-11-30T16:31:53.126Z,1.50
2023-11-30T16:34:20.919Z,1.50
2023-11-30T16:36:50.850Z,1.50
2023-11-30T16:39:18.133Z,1.50
2023-11-30T16:41:45.210Z,1.50
2023-11-30T16:44:12.643Z,1.60
2023-11-30T16:46:40.157Z,1.50
2023-11-30T16:49:07.327Z,1.50
2023-11-30T16:51:35.211Z,1.50
2023-11-30T16:54:02.733Z,1.50
2023-11-30T16:56:29.952Z,1.50
2023-11-30T16:58:56.883Z,1.50
2023-11-30T17:01:23.732Z,1.50
2023-11-30T17:03:50.811Z,1.50
2023-11-30T17:06:17.942Z,1.50
2023-11-30T17:08:44.762Z,1.50
2023-11-30T17:11:11.662Z,1.50
2023-11-30T17:13:40.730Z,1.50
2023-11-30T17:16:09.338Z,1.50
2023-11-30T17:18:36.514Z,1.50
2023-11-30T17:21:03.614Z,1.50
2023-11-30T17:23:31.424Z,1.50
2023-11-30T17:25:58.742Z,1.40
2023-11-30T17:28:25.986Z,1.40
2023-11-30T17:30:53.339Z,1.50
2023-11-30T17:33:20.658Z,1.40
2023-11-30T17:35:47.699Z,1.50
2023-11-30T17:38:15.442Z,1.40
2023-11-30T17:40:43.006Z,1.40
2023-11-30T17:43:09.896Z,1.50
2023-11-30T17:45:36.721Z,1.50
2023-11-30T17:48:06.970Z,1.40
2023-11-30T17:50:33.903Z,1.40
2023-11-30T17:53:02.073Z,1.40
2023-11-30T17:55:29.738Z,1.40
2023-11-30T17:57:56.796Z,1.40
2023-11-30T18:00:27.174Z,1.30
2023-11-30T18:02:54.883Z,1.30
2023-11-30T18:05:21.703Z,1.30
2023-11-30T18:07:48.628Z,1.40
2023-11-30T18:10:15.427Z,1.40
2023-11-30T18:12:42.370Z,1.40
2023-11-30T18:15:09.771Z,1.40
2023-11-30T18:17:36.681Z,1.40
2023-11-30T18:20:03.921Z,1.50
2023-11-30T18:22:33.880Z,1.50
2023-11-30T18:25:01.803Z,1.50
2023-11-30T18:27:28.794Z,1.50
2023-11-30T18:29:56.937Z,1.50
2023-11-30T18:32:23.827Z,1.50
2023-11-30T18:34:50.811Z,1.50
2023-11-30T18:37:17.717Z,1.50
2023-11-30T18:39:44.670Z,1.50
2023-11-30T18:42:11.546Z,1.50
2023-11-30T18:44:38.377Z,1.50
2023-11-30T18:47:05.374Z,1.50
2023-11-30T18:49:33.632Z,1.50
2023-11-30T18:52:00.696Z,1.50
2023-11-30T18:54:27.712Z,1.50
2023-11-30T18:56:54.532Z,1.50
2023-11-30T18:59:21.429Z,1.40
2023-11-30T19:01:48.834Z,1.40
2023-11-30T19:04:15.979Z,1.40
2023-11-30T19:06:43.056Z,1.50
2023-11-30T19:09:35.596Z,1.50
2023-11-30T19:12:02.981Z,1.30
2023-11-30T19:14:29.934Z,1.30
2023-11-30T19:16:56.769Z,1.40
2023-11-30T19:19:23.632Z,1.40
2023-11-30T19:21:50.542Z,1.40
2023-11-30T19:24:17.409Z,1.40
2023-11-30T19:26:44.301Z,1.40
2023-11-30T19:29:11.401Z,1.30
2023-11-30T19:31:39.120Z,1.30
2023-11-30T19:34:07.009Z,1.30
2023-11-30T19:36:33.885Z,1.20
2023-11-30T19:39:01.253Z,1.30
2023-11-30T19:41:28.057Z,1.30
2023-11-30T19:43:55.491Z,1.30
2023-11-30T19:46:22.466Z,1.30
2023-11-30T19:48:49.360Z,1.20
2023-11-30T19:51:17.705Z,1.20
2023-11-30T19:53:46.186Z,1.20
2023-11-30T19:56:15.567Z,1.20
2023-11-30T19:58:46.003Z,1.20
2023-11-30T20:01:13.354Z,1.20
2023-11-30T20:03:40.753Z,1.30
2023-11-30T20:06:07.769Z,1.30
2023-11-30T20:08:34.605Z,1.30
2023-11-30T20:11:06.276Z,1.30
2023-11-30T20:13:34.027Z,1.30
2023-11-30T20:16:01.072Z,1.30
2023-11-30T20:18:28.377Z,1.30
2023-11-30T20:20:55.213Z,1.20
2023-11-30T20:23:22.010Z,1.20
2023-11-30T20:25:48.916Z,1.20
2023-11-30T20:28:16.787Z,1.20
2023-11-30T20:30:43.743Z,1.20
2023-11-30T20:33:10.728Z,1.20
2023-11-30T20:35:37.588Z,1.10
2023-11-30T20:38:04.594Z,1.10
2023-11-30T20:40:32.587Z,1.20
2023-11-30T20:42:59.374Z,1.20
2023-11-30T20:45:26.298Z,1.20
2023-11-30T20:47:53.206Z,1.20
2023-11-30T20:50:20.222Z,1.20
2023-11-30T20:52:47.099Z,1.20
2023-11-30T20:55:15.444Z,1.30
2023-11-30T20:57:45.474Z,1.30
2023-11-30T21:00:12.972Z,1.30
2023-11-30T21:02:39.934Z,1.30
2023-11-30T21:05:07.737Z,1.30
2023-11-30T21:07:34.572Z,1.20
2023-11-30T21:10:01.443Z,1.20
2023-11-30T21:12:28.375Z,1.20
2023-11-30T21:14:55.916Z,1.20
2023-11-30T21:17:23.659Z,1.20
2023-11-30T21:19:50.440Z,1.20
2023-11-30T21:22:17.287Z,1.20
2023-11-30T21:24:45.958Z,1.30
2023-11-30T21:27:13.792Z,1.30
2023-11-30T21:29:40.929Z,1.30
2023-11-30T21:32:08.621Z,1.30
2023-11-30T21:34:35.669Z,1.30
2023-11-30T21:37:02.553Z,1.30
2023-11-30T21:39:31.275Z,1.30
2023-11-30T21:41:58.317Z,1.30
2023-11-30T21:44:26.478Z,1.20
2023-11-30T21:46:53.324Z,1.20
2023-11-30T21:49:21.291Z,1.30
2023-11-30T21:51:48.572Z,1.30
2023-11-30T21:54:15.487Z,1.30
2023-11-30T21:56:42.351Z,1.30
2023-11-30T21:59:09.148Z,1.20
2023-11-30T22:01:36.494Z,1.20
2023-11-30T22:04:04.155Z,1.30
2023-11-30T22:06:31.520Z,1.30
2023-11-30T22:08:58.411Z,1.30
2023-11-30T22:11:25.590Z,1.30
2023-11-30T22:13:52.398Z,1.30
2023-11-30T22:16:26.336Z,1.30
2023-11-30T22:18:59.907Z,1.20
2023-11-30T22:21:26.805Z,1.20
2023-11-30T22:23:53.738Z,1.20
2023-11-30T22:26:20.617Z,1.20
2023-11-30T22:28:47.549Z,1.20
2023-11-30T22:31:18.000Z,1.20
2023-11-30T22:33:45.027Z,1.20
2023-11-30T22:36:12.339Z,1.20
2023-11-30T22:38:45.348Z,1.20
2023-11-30T22:41:13.561Z,1.20
2023-11-30T22:43:40.356Z,1.20
2023-11-30T22:46:07.501Z,1.20
2023-11-30T22:48:35.122Z,1.30
2023-11-30T22:51:03.731Z,1.20
2023-11-30T22:53:30.629Z,1.20
2023-11-30T22:55:57.628Z,1.30
2023-11-30T22:58:24.568Z,1.20
2023-11-30T23:00:51.680Z,1.20
2023-11-30T23:03:18.830Z,1.20
2023-11-30T23:05:45.782Z,1.20
2023-11-30T23:08:12.600Z,1.20
2023-11-30T23:10:39.485Z,1.20
2023-11-30T23:13:06.834Z,1.20
2023-11-30T23:15:33.741Z,1.20
2023-11-30T23:18:00.576Z,1.20
2023-11-30T23:20:27.415Z,1.20
2023-11-30T23:22:54.212Z,1.20
2023-11-30T23:25:21.051Z,1.20
2023-11-30T23:27:47.984Z,1.20
2023-11-30T23:30:14.951Z,1.20
2023-11-30T23:32:44.244Z,1.20
2023-11-30T23:35:11.246Z,1.20
2023-11-30T23:37:38.075Z,1.20
2023-11-30T23:40:05.694Z,1.20
2023-11-30T23:42:32.613Z,1.10
2023-11-30T23:45:01.895Z,1.10
2023-11-30T23:47:29.241Z,1.10
2023-11-30T23:49:56.094Z,1.10
2023-11-30T23:52:22.935Z,1.20
2023-11-30T23:54:49.834Z,1.20
2023-11-30T23:57:17.017Z,1.20
2023-11-30T23:59:43.862Z,1.20
